sensor_id;sensor_type;location;lat;lon;timestamp;pressure;altitude;pressure_sealevel;temperature;humidity
69784;BME280;57054;51.978;4.498;2022-10-04T00:03:17;102365.53;;;12.23;89.58
69784;BME280;57054;51.978;4.498;2022-10-04T00:05:48;102361.13;;;12.23;89.69
69784;BME280;57054;51.978;4.498;2022-10-04T00:08:49;102359.47;;;12.21;89.83
69784;BME280;57054;51.978;4.498;2022-10-04T00:11:28;102356.84;;;12.21;89.83
69784;BME280;57054;51.978;4.498;2022-10-04T00:13:58;102348.94;;;12.21;89.72
69784;BME280;57054;51.978;4.498;2022-10-04T00:16:32;102360.34;;;12.20;89.74
69784;BME280;57054;51.978;4.498;2022-10-04T00:19:01;102353.38;;;12.19;89.68
69784;BME280;57054;51.978;4.498;2022-10-04T00:24:31;102350.75;;;12.19;89.66
69784;BME280;57054;51.978;4.498;2022-10-04T00:29:39;102339.41;;;12.17;89.93
69784;BME280;57054;51.978;4.498;2022-10-04T00:37:00;102335.06;;;12.16;90.08
69784;BME280;57054;51.978;4.498;2022-10-04T00:39:37;102333.31;;;12.15;90.12
69784;BME280;57054;51.978;4.498;2022-10-04T00:42:30;102335.94;;;12.15;89.96
69784;BME280;57054;51.978;4.498;2022-10-04T00:45:12;102347.38;;;12.14;89.66
69784;BME280;57054;51.978;4.498;2022-10-04T00:50:26;102355.28;;;12.12;89.78
69784;BME280;57054;51.978;4.498;2022-10-04T00:52:56;102357.91;;;12.12;90.03
69784;BME280;57054;51.978;4.498;2022-10-04T00:55:36;102343.03;;;12.11;90.20
69784;BME280;57054;51.978;4.498;2022-10-04T00:58:07;102346.53;;;12.12;90.52
69784;BME280;57054;51.978;4.498;2022-10-04T01:04:00;102332.56;;;12.09;90.32
69784;BME280;57054;51.978;4.498;2022-10-04T01:06:28;102325.59;;;12.08;90.38
69784;BME280;57054;51.978;4.498;2022-10-04T01:08:59;102327.38;;;12.08;89.89
69784;BME280;57054;51.978;4.498;2022-10-04T01:11:38;102315.13;;;12.07;90.38
69784;BME280;57054;51.978;4.498;2022-10-04T01:14:13;102314.28;;;12.06;89.99
69784;BME280;57054;51.978;4.498;2022-10-04T01:16:43;102311.69;;;12.05;90.27
69784;BME280;57054;51.978;4.498;2022-10-04T01:21:47;102313.44;;;12.04;90.16
69784;BME280;57054;51.978;4.498;2022-10-04T01:24:22;102309.06;;;12.03;89.92
69784;BME280;57054;51.978;4.498;2022-10-04T01:26:48;102298.59;;;12.02;90.02
69784;BME280;57054;51.978;4.498;2022-10-04T01:29:17;102311.72;;;12.02;89.68
69784;BME280;57054;51.978;4.498;2022-10-04T01:31:45;102302.16;;;12.01;89.57
69784;BME280;57054;51.978;4.498;2022-10-04T01:34:16;102284.66;;;12.00;89.93
69784;BME280;57054;51.978;4.498;2022-10-04T01:36:43;102281.19;;;11.99;89.93
69784;BME280;57054;51.978;4.498;2022-10-04T01:39:12;102281.22;;;11.98;89.84
69784;BME280;57054;51.978;4.498;2022-10-04T01:46:55;102262.03;;;11.94;89.84
69784;BME280;57054;51.978;4.498;2022-10-04T01:49:28;102256.78;;;11.94;89.58
69784;BME280;57054;51.978;4.498;2022-10-04T01:51:59;102258.56;;;11.94;89.46
69784;BME280;57054;51.978;4.498;2022-10-04T01:54:36;102236.72;;;11.92;89.39
69784;BME280;57054;51.978;4.498;2022-10-04T01:59:40;102246.34;;;11.91;89.75
69784;BME280;57054;51.978;4.498;2022-10-04T02:02:29;102235.00;;;11.89;89.49
69784;BME280;57054;51.978;4.498;2022-10-04T02:04:57;102233.28;;;11.88;89.49
69784;BME280;57054;51.978;4.498;2022-10-04T02:07:24;102228.06;;;11.86;89.30
69784;BME280;57054;51.978;4.498;2022-10-04T02:09:55;102220.19;;;11.86;89.45
69784;BME280;57054;51.978;4.498;2022-10-04T02:12:25;102214.13;;;11.84;89.59
69784;BME280;57054;51.978;4.498;2022-10-04T02:14:53;102207.13;;;11.83;89.53
69784;BME280;57054;51.978;4.498;2022-10-04T02:17:22;102201.03;;;11.83;89.39
69784;BME280;57054;51.978;4.498;2022-10-04T02:19:51;102190.53;;;11.83;89.63
69784;BME280;57054;51.978;4.498;2022-10-04T02:22:17;102184.47;;;11.81;89.66
69784;BME280;57054;51.978;4.498;2022-10-04T02:24:45;102180.09;;;11.80;89.24
69784;BME280;57054;51.978;4.498;2022-10-04T02:27:13;102175.72;;;11.79;89.57
69784;BME280;57054;51.978;4.498;2022-10-04T02:29:38;102182.75;;;11.78;89.51
69784;BME280;57054;51.978;4.498;2022-10-04T02:32:05;102174.88;;;11.78;89.38
69784;BME280;57054;51.978;4.498;2022-10-04T02:34:50;102177.53;;;11.77;89.58
69784;BME280;57054;51.978;4.498;2022-10-04T02:37:17;102166.19;;;11.76;89.27
69784;BME280;57054;51.978;4.498;2022-10-04T02:39:46;102168.84;;;11.75;89.66
69784;BME280;57054;51.978;4.498;2022-10-04T02:42:21;102174.09;;;11.75;89.30
69784;BME280;57054;51.978;4.498;2022-10-04T02:45:00;102176.75;;;11.73;89.34
69784;BME280;57054;51.978;4.498;2022-10-04T02:47:39;102164.53;;;11.72;89.50
69784;BME280;57054;51.978;4.498;2022-10-04T02:53:51;102144.47;;;11.69;89.25
69784;BME280;57054;51.978;4.498;2022-10-04T02:55:57;102140.13;;;11.68;89.23
69784;BME280;57054;51.978;4.498;2022-10-04T02:58:24;102140.16;;;11.67;89.20
69784;BME280;57054;51.978;4.498;2022-10-04T03:00:55;102141.06;;;11.66;89.29
69784;BME280;57054;51.978;4.498;2022-10-04T03:03:28;102145.44;;;11.65;89.39
69784;BME280;57054;51.978;4.498;2022-10-04T03:06:09;102151.63;;;11.64;89.13
69784;BME280;57054;51.978;4.498;2022-10-04T03:11:09;102146.41;;;11.63;89.45
69784;BME280;57054;51.978;4.498;2022-10-04T03:13:37;102135.94;;;11.61;89.50
69784;BME280;57054;51.978;4.498;2022-10-04T03:16:04;102129.84;;;11.61;89.41
69784;BME280;57054;51.978;4.498;2022-10-04T03:18:30;102128.94;;;11.60;89.05
69784;BME280;57054;51.978;4.498;2022-10-04T03:21:00;102115.00;;;11.58;89.57
69784;BME280;57054;51.978;4.498;2022-10-04T03:23:29;102120.25;;;11.58;89.28
69784;BME280;57054;51.978;4.498;2022-10-04T03:26:00;102115.94;;;11.57;89.38
69784;BME280;57054;51.978;4.498;2022-10-04T03:28:28;102108.09;;;11.56;89.39
69784;BME280;57054;51.978;4.498;2022-10-04T03:30:53;102110.69;;;11.57;89.76
69784;BME280;57054;51.978;4.498;2022-10-04T03:33:22;102113.34;;;11.56;89.95
69784;BME280;57054;51.978;4.498;2022-10-04T03:35:51;102109.84;;;11.55;89.88
69784;BME280;57054;51.978;4.498;2022-10-04T03:38:18;102106.31;;;11.56;89.91
69784;BME280;57054;51.978;4.498;2022-10-04T03:40:56;102090.59;;;11.55;90.26
69784;BME280;57054;51.978;4.498;2022-10-04T03:43:25;102088.91;;;11.53;90.16
69784;BME280;57054;51.978;4.498;2022-10-04T03:45:52;102086.31;;;11.52;90.12
69784;BME280;57054;51.978;4.498;2022-10-04T03:48:30;102089.78;;;11.52;90.41
69784;BME280;57054;51.978;4.498;2022-10-04T03:50:57;102088.09;;;11.51;90.45
69784;BME280;57054;51.978;4.498;2022-10-04T03:53:29;102100.31;;;11.51;90.22
69784;BME280;57054;51.978;4.498;2022-10-04T03:55:56;102100.31;;;11.51;90.39
69784;BME280;57054;51.978;4.498;2022-10-04T03:58:23;102096.84;;;11.50;90.36
69784;BME280;57054;51.978;4.498;2022-10-04T04:01:03;102097.69;;;11.51;90.54
69784;BME280;57054;51.978;4.498;2022-10-04T04:03:29;102107.34;;;11.50;90.83
69784;BME280;57054;51.978;4.498;2022-10-04T04:05:58;102105.59;;;11.49;90.76
69784;BME280;57054;51.978;4.498;2022-10-04T04:08:36;102102.97;;;11.49;90.88
69784;BME280;57054;51.978;4.498;2022-10-04T04:11:04;102102.97;;;11.49;90.91
69784;BME280;57054;51.978;4.498;2022-10-04T04:16:15;102107.41;;;11.47;91.00
69784;BME280;57054;51.978;4.498;2022-10-04T04:18:45;102104.78;;;11.47;90.92
69784;BME280;57054;51.978;4.498;2022-10-04T04:21:16;102112.69;;;11.46;91.04
69784;BME280;57054;51.978;4.498;2022-10-04T04:24:01;102107.44;;;11.46;91.05
69784;BME280;57054;51.978;4.498;2022-10-04T04:26:37;102110.06;;;11.46;91.07
69784;BME280;57054;51.978;4.498;2022-10-04T04:31:43;102098.72;;;11.45;90.92
69784;BME280;57054;51.978;4.498;2022-10-04T04:34:19;102098.72;;;11.45;91.06
69784;BME280;57054;51.978;4.498;2022-10-04T04:36:45;102102.25;;;11.44;90.89
69784;BME280;57054;51.978;4.498;2022-10-04T04:39:19;102102.25;;;11.44;90.86
69784;BME280;57054;51.978;4.498;2022-10-04T04:42:14;102103.13;;;11.43;90.38
69784;BME280;57054;51.978;4.498;2022-10-04T04:44:53;102092.63;;;11.43;90.44
69784;BME280;57054;51.978;4.498;2022-10-04T04:47:30;102097.03;;;11.43;90.64
69784;BME280;57054;51.978;4.498;2022-10-04T04:52:30;102096.13;;;11.44;90.56
69784;BME280;57054;51.978;4.498;2022-10-04T04:54:56;102101.41;;;11.42;90.64
69784;BME280;57054;51.978;4.498;2022-10-04T04:57:22;102104.91;;;11.43;90.65
69784;BME280;57054;51.978;4.498;2022-10-04T04:59:52;102098.78;;;11.42;90.69
69784;BME280;57054;51.978;4.498;2022-10-04T05:02:51;102096.16;;;11.42;90.23
69784;BME280;57054;51.978;4.498;2022-10-04T05:05:23;102099.66;;;11.43;90.35
69784;BME280;57054;51.978;4.498;2022-10-04T05:08:18;102097.03;;;11.43;90.40
69784;BME280;57054;51.978;4.498;2022-10-04T05:13:57;102100.53;;;11.42;90.61
69784;BME280;57054;51.978;4.498;2022-10-04T05:19:07;102097.91;;;11.42;90.69
69784;BME280;57054;51.978;4.498;2022-10-04T05:21:36;102090.03;;;11.42;90.84
69784;BME280;57054;51.978;4.498;2022-10-04T05:24:36;102097.91;;;11.42;91.16
69784;BME280;57054;51.978;4.498;2022-10-04T05:27:14;102088.34;;;11.41;91.19
69784;BME280;57054;51.978;4.498;2022-10-04T05:29:53;102090.09;;;11.40;90.87
69784;BME280;57054;51.978;4.498;2022-10-04T05:35:14;102077.88;;;11.39;91.37
69784;BME280;57054;51.978;4.498;2022-10-04T05:46:27;102077.94;;;11.36;91.45
69784;BME280;57054;51.978;4.498;2022-10-04T05:48:57;102068.31;;;11.37;91.17
69784;BME280;57054;51.978;4.498;2022-10-04T05:51:28;102074.47;;;11.36;91.13
69784;BME280;57054;51.978;4.498;2022-10-04T05:53:56;102064.88;;;11.34;91.29
69784;BME280;57054;51.978;4.498;2022-10-04T06:08:13;102056.19;;;11.32;91.44
69784;BME280;57054;51.978;4.498;2022-10-04T06:26:47;102043.19;;;11.28;91.59
69784;BME280;57054;51.978;4.498;2022-10-04T06:29:21;102051.91;;;11.28;91.40
69784;BME280;57054;51.978;4.498;2022-10-04T06:46:30;102040.63;;;11.25;91.99
69784;BME280;57054;51.978;4.498;2022-10-04T07:00:23;102033.66;;;11.24;91.72
69784;BME280;57054;51.978;4.498;2022-10-04T07:03:32;102024.94;;;11.23;91.82
69784;BME280;57054;51.978;4.498;2022-10-04T07:06:04;102033.66;;;11.24;91.51
69784;BME280;57054;51.978;4.498;2022-10-04T07:08:49;102037.16;;;11.24;91.50
69784;BME280;57054;51.978;4.498;2022-10-04T07:13:49;102036.28;;;11.24;91.92
69784;BME280;57054;51.978;4.498;2022-10-04T07:16:28;102045.88;;;11.25;91.86
69784;BME280;57054;51.978;4.498;2022-10-04T07:19:03;102044.97;;;11.26;91.78
69784;BME280;57054;51.978;4.498;2022-10-04T07:21:40;102045.88;;;11.25;91.61
69784;BME280;57054;51.978;4.498;2022-10-04T07:24:12;102049.34;;;11.25;91.83
69784;BME280;57054;51.978;4.498;2022-10-04T07:26:48;102048.47;;;11.26;91.79
69784;BME280;57054;51.978;4.498;2022-10-04T07:29:18;102048.47;;;11.26;91.67
69784;BME280;57054;51.978;4.498;2022-10-04T07:34:35;102044.94;;;11.27;91.43
69784;BME280;57054;51.978;4.498;2022-10-04T07:37:08;102044.94;;;11.27;91.72
69784;BME280;57054;51.978;4.498;2022-10-04T07:44:40;102066.72;;;11.29;91.46
69784;BME280;57054;51.978;4.498;2022-10-04T07:47:20;102069.31;;;11.31;91.56
69784;BME280;57054;51.978;4.498;2022-10-04T07:49:46;102062.38;;;11.30;91.07
69784;BME280;57054;51.978;4.498;2022-10-04T07:52:42;102060.56;;;11.32;90.98
69784;BME280;57054;51.978;4.498;2022-10-04T08:01:06;102058.81;;;11.32;91.58
69784;BME280;57054;51.978;4.498;2022-10-04T08:06:58;102059.66;;;11.33;91.26
69784;BME280;57054;51.978;4.498;2022-10-04T08:28:57;102055.94;;;11.42;91.47
69784;BME280;57054;51.978;4.498;2022-10-04T08:52:28;102055.72;;;11.51;91.81
69784;BME280;57054;51.978;4.498;2022-10-04T08:55:18;102061.84;;;11.51;91.50
69784;BME280;57054;51.978;4.498;2022-10-04T08:58:00;102055.69;;;11.52;91.54
69784;BME280;57054;51.978;4.498;2022-10-04T09:19:49;102043.09;;;11.65;92.31
69784;BME280;57054;51.978;4.498;2022-10-04T09:25:50;102056.97;;;11.70;92.46
69784;BME280;57054;51.978;4.498;2022-10-04T09:44:01;102017.06;;;11.92;93.48
69784;BME280;57054;51.978;4.498;2022-10-04T09:46:39;102005.63;;;11.95;93.76
69784;BME280;57054;51.978;4.498;2022-10-04T09:52:12;102014.22;;;12.00;93.45
69784;BME280;57054;51.978;4.498;2022-10-04T09:54:57;102022.03;;;12.03;93.13
69784;BME280;57054;51.978;4.498;2022-10-04T10:23:12;102019.88;;;12.47;93.00
69784;BME280;57054;51.978;4.498;2022-10-04T10:28:55;102009.13;;;12.55;92.66
69784;BME280;57054;51.978;4.498;2022-10-04T10:37:05;102005.31;;;12.65;92.96
69784;BME280;57054;51.978;4.498;2022-10-04T10:42:12;102001.56;;;12.74;93.45
69784;BME280;57054;51.978;4.498;2022-10-04T11:02:19;102004.06;;;13.05;91.35
69784;BME280;57054;51.978;4.498;2022-10-04T11:07:54;102003.66;;;13.17;91.93
69784;BME280;57054;51.978;4.498;2022-10-04T11:13:35;102003.25;;;13.30;92.54
69784;BME280;57054;51.978;4.498;2022-10-04T11:21:58;102024.84;;;13.41;92.00
69784;BME280;57054;51.978;4.498;2022-10-04T11:25:17;102014.28;;;13.42;91.73
69784;BME280;57054;51.978;4.498;2022-10-04T11:30:07;102008.78;;;13.49;91.75
69784;BME280;57054;51.978;4.498;2022-10-04T11:37:58;102003.25;;;13.56;92.03
69784;BME280;57054;51.978;4.498;2022-10-04T11:44:14;101992.56;;;13.61;91.09
69784;BME280;57054;51.978;4.498;2022-10-04T12:00:17;101970.06;;;13.77;91.36
69784;BME280;57054;51.978;4.498;2022-10-04T12:22:18;101955.81;;;14.07;90.35
69784;BME280;57054;51.978;4.498;2022-10-04T12:25:11;101956.50;;;14.12;90.20
69784;BME280;57054;51.978;4.498;2022-10-04T12:28:06;101938.81;;;14.15;90.83
69784;BME280;57054;51.978;4.498;2022-10-04T12:30:52;101941.31;;;14.18;91.23
69784;BME280;57054;51.978;4.498;2022-10-04T12:33:28;101935.97;;;14.20;90.22
69784;BME280;57054;51.978;4.498;2022-10-04T12:36:12;101928.78;;;14.25;91.00
69784;BME280;57054;51.978;4.498;2022-10-04T12:44:53;101925.59;;;14.39;89.95
69784;BME280;57054;51.978;4.498;2022-10-04T12:58:29;101910.59;;;14.63;89.08
69784;BME280;57054;51.978;4.498;2022-10-04T13:01:08;101916.63;;;14.67;90.03
69784;BME280;57054;51.978;4.498;2022-10-04T13:04:02;101901.53;;;14.70;89.80
69784;BME280;57054;51.978;4.498;2022-10-04T13:10:23;101896.72;;;14.80;90.91
69784;BME280;57054;51.978;4.498;2022-10-04T13:12:57;101892.25;;;14.82;90.03
69784;BME280;57054;51.978;4.498;2022-10-04T13:25:26;101868.72;;;14.98;89.74
69784;BME280;57054;51.978;4.498;2022-10-04T13:30:42;101875.44;;;15.05;89.29
69784;BME280;57054;51.978;4.498;2022-10-04T13:33:25;101852.44;;;15.09;88.84
69784;BME280;57054;51.978;4.498;2022-10-04T13:36:27;101853.94;;;15.14;89.19
69784;BME280;57054;51.978;4.498;2022-10-04T13:50:37;101834.81;;;15.30;89.49
69784;BME280;57054;51.978;4.498;2022-10-04T13:53:33;101832.88;;;15.33;89.59
69784;BME280;57054;51.978;4.498;2022-10-04T14:02:36;101835.31;;;15.38;88.78
69784;BME280;57054;51.978;4.498;2022-10-04T14:05:25;101834.28;;;15.41;89.62
69784;BME280;57054;51.978;4.498;2022-10-04T14:22:48;101836.38;;;15.53;90.07
69784;BME280;57054;51.978;4.498;2022-10-04T14:40:06;101856.53;;;15.55;90.22
69784;BME280;57054;51.978;4.498;2022-10-04T14:48:04;101845.88;;;15.57;89.74
69784;BME280;57054;51.978;4.498;2022-10-04T14:50:44;101843.34;;;15.55;89.34
69784;BME280;57054;51.978;4.498;2022-10-04T14:53:27;101842.38;;;15.57;89.46
69784;BME280;57054;51.978;4.498;2022-10-04T14:56:33;101836.19;;;15.58;90.32
69784;BME280;57054;51.978;4.498;2022-10-04T15:07:19;101833.56;;;15.58;89.61
69784;BME280;57054;51.978;4.498;2022-10-04T15:20:35;101836.19;;;15.58;89.31
69784;BME280;57054;51.978;4.498;2022-10-04T15:37:14;101828.28;;;15.58;89.85
69784;BME280;57054;51.978;4.498;2022-10-04T15:42:53;101817.78;;;15.56;89.08
69784;BME280;57054;51.978;4.498;2022-10-04T15:45:36;101815.13;;;15.56;89.17
69784;BME280;57054;51.978;4.498;2022-10-04T15:48:37;101821.34;;;15.55;88.77
69784;BME280;57054;51.978;4.498;2022-10-04T16:01:50;101830.19;;;15.54;89.37
69784;BME280;57054;51.978;4.498;2022-10-04T16:09:44;101843.41;;;15.54;89.70
69784;BME280;57054;51.978;4.498;2022-10-04T16:12:27;101828.41;;;15.54;89.94
69784;BME280;57054;51.978;4.498;2022-10-04T16:15:10;101825.75;;;15.54;89.94
69784;BME280;57054;51.978;4.498;2022-10-04T16:17:57;101819.63;;;15.54;89.22
69784;BME280;57054;51.978;4.498;2022-10-04T16:20:33;101824.06;;;15.53;89.12
69784;BME280;57054;51.978;4.498;2022-10-04T16:26:13;101830.25;;;15.52;89.45
69784;BME280;57054;51.978;4.498;2022-10-04T16:32:16;101839.03;;;15.53;89.40
69784;BME280;57054;51.978;4.498;2022-10-04T16:34:50;101838.19;;;15.52;89.75
69784;BME280;57054;51.978;4.498;2022-10-04T16:38:02;101836.56;;;15.50;89.58
69784;BME280;57054;51.978;4.498;2022-10-04T16:48:20;101835.59;;;15.51;89.77
69784;BME280;57054;51.978;4.498;2022-10-04T16:56:22;101840.09;;;15.49;89.26
69784;BME280;57054;51.978;4.498;2022-10-04T17:07:04;101841.91;;;15.48;89.13
69784;BME280;57054;51.978;4.498;2022-10-04T17:13:14;101824.41;;;15.46;89.26
69784;BME280;57054;51.978;4.498;2022-10-04T17:18:01;101834.09;;;15.45;89.34
69784;BME280;57054;51.978;4.498;2022-10-04T17:20:48;101845.56;;;15.44;89.22
69784;BME280;57054;51.978;4.498;2022-10-04T17:26:14;101840.28;;;15.44;89.19
69784;BME280;57054;51.978;4.498;2022-10-04T17:34:30;101838.59;;;15.43;89.28
69784;BME280;57054;51.978;4.498;2022-10-04T17:42:56;101844.78;;;15.42;89.42
69784;BME280;57054;51.978;4.498;2022-10-04T17:48:04;101841.25;;;15.43;89.34
69784;BME280;57054;51.978;4.498;2022-10-04T17:54:10;101829.03;;;15.41;89.64
69784;BME280;57054;51.978;4.498;2022-10-04T17:59:41;101826.47;;;15.39;89.34
69784;BME280;57054;51.978;4.498;2022-10-04T18:04:55;101823.91;;;15.38;89.61
69784;BME280;57054;51.978;4.498;2022-10-04T18:07:38;101826.53;;;15.38;89.58
69784;BME280;57054;51.978;4.498;2022-10-04T18:10:26;101830.09;;;15.36;89.53
69784;BME280;57054;51.978;4.498;2022-10-04T18:13:01;101832.72;;;15.36;89.37
69784;BME280;57054;51.978;4.498;2022-10-04T18:15:32;101828.41;;;15.35;89.08
69784;BME280;57054;51.978;4.498;2022-10-04T18:20:39;101835.44;;;15.35;89.44
69784;BME280;57054;51.978;4.498;2022-10-04T18:23:26;101835.44;;;15.35;89.61
69784;BME280;57054;51.978;4.498;2022-10-04T18:26:13;101839.88;;;15.34;89.81
69784;BME280;57054;51.978;4.498;2022-10-04T18:28:42;101840.72;;;15.35;89.84
69784;BME280;57054;51.978;4.498;2022-10-04T18:31:31;101838.16;;;15.33;89.63
69784;BME280;57054;51.978;4.498;2022-10-04T18:34:15;101831.09;;;15.34;89.80
69784;BME280;57054;51.978;4.498;2022-10-04T18:37:20;101837.28;;;15.33;89.76
69784;BME280;57054;51.978;4.498;2022-10-04T18:39:52;101825.88;;;15.32;90.04
69784;BME280;57054;51.978;4.498;2022-10-04T18:42:19;101820.59;;;15.32;89.83
69784;BME280;57054;51.978;4.498;2022-10-04T18:45:03;101811.84;;;15.32;89.74
69784;BME280;57054;51.978;4.498;2022-10-04T18:47:43;101807.41;;;15.32;89.99
69784;BME280;57054;51.978;4.498;2022-10-04T19:07:10;101789.94;;;15.30;89.64
69784;BME280;57054;51.978;4.498;2022-10-04T19:10:00;101781.22;;;15.28;89.30
69784;BME280;57054;51.978;4.498;2022-10-04T19:12:45;101778.56;;;15.28;89.30
69784;BME280;57054;51.978;4.498;2022-10-04T19:21:01;101764.59;;;15.26;89.09
69784;BME280;57054;51.978;4.498;2022-10-04T19:26:33;101766.38;;;15.25;89.13
69784;BME280;57054;51.978;4.498;2022-10-04T19:29:22;101755.84;;;15.25;89.36
69784;BME280;57054;51.978;4.498;2022-10-04T19:32:00;101761.19;;;15.24;88.57
69784;BME280;57054;51.978;4.498;2022-10-04T19:34:35;101762.97;;;15.23;88.58
69784;BME280;57054;51.978;4.498;2022-10-04T19:37:32;101759.56;;;15.21;88.15
69784;BME280;57054;51.978;4.498;2022-10-04T19:40:15;101770.09;;;15.21;88.36
69784;BME280;57054;51.978;4.498;2022-10-04T19:42:50;101772.81;;;15.20;88.18
69784;BME280;57054;51.978;4.498;2022-10-04T19:48:32;101781.63;;;15.19;88.25
69784;BME280;57054;51.978;4.498;2022-10-04T19:51:08;101779.00;;;15.19;87.92
69784;BME280;57054;51.978;4.498;2022-10-04T19:53:43;101779.94;;;15.18;87.67
69784;BME280;57054;51.978;4.498;2022-10-04T19:56:17;101787.06;;;15.15;87.62
69784;BME280;57054;51.978;4.498;2022-10-04T19:58:53;101779.16;;;15.15;87.55
69784;BME280;57054;51.978;4.498;2022-10-04T20:01:23;101791.47;;;15.15;87.44
69784;BME280;57054;51.978;4.498;2022-10-04T20:03:51;101787.13;;;15.14;87.26
69784;BME280;57054;51.978;4.498;2022-10-04T20:06:35;101782.78;;;15.13;87.48
69784;BME280;57054;51.978;4.498;2022-10-04T20:11:51;101785.47;;;15.11;87.33
69784;BME280;57054;51.978;4.498;2022-10-04T20:19:38;101782.13;;;15.08;86.68
69784;BME280;57054;51.978;4.498;2022-10-04T20:27:07;101784.84;;;15.06;86.92
69784;BME280;57054;51.978;4.498;2022-10-04T20:34:51;101804.28;;;15.04;86.83
69784;BME280;57054;51.978;4.498;2022-10-04T20:37:17;101804.34;;;15.02;86.88
69784;BME280;57054;51.978;4.498;2022-10-04T20:42:32;101805.22;;;15.03;87.27
69784;BME280;57054;51.978;4.498;2022-10-04T20:45:00;101802.59;;;15.03;87.06
69784;BME280;57054;51.978;4.498;2022-10-04T20:47:42;101796.50;;;15.01;87.14
69784;BME280;57054;51.978;4.498;2022-10-04T20:53:03;101808.00;;;15.00;87.09
69784;BME280;57054;51.978;4.498;2022-10-04T20:55:35;101811.47;;;15.00;87.12
69784;BME280;57054;51.978;4.498;2022-10-04T20:58:28;101806.25;;;14.98;86.67
69784;BME280;57054;51.978;4.498;2022-10-04T21:00:58;101795.78;;;14.97;86.17
69784;BME280;57054;51.978;4.498;2022-10-04T21:03:24;101802.78;;;14.98;86.68
69784;BME280;57054;51.978;4.498;2022-10-04T21:06:05;101806.31;;;14.97;86.34
69784;BME280;57054;51.978;4.498;2022-10-04T21:08:31;101792.34;;;14.95;85.83
69784;BME280;57054;51.978;4.498;2022-10-04T21:11:07;101797.63;;;14.95;86.21
69784;BME280;57054;51.978;4.498;2022-10-04T21:16:08;101790.66;;;14.94;86.72
69784;BME280;57054;51.978;4.498;2022-10-04T21:18:34;101802.13;;;14.93;86.19
69784;BME280;57054;51.978;4.498;2022-10-04T21:20:59;101806.53;;;14.92;86.44
69784;BME280;57054;51.978;4.498;2022-10-04T21:26:22;101795.16;;;14.92;86.55
69784;BME280;57054;51.978;4.498;2022-10-04T21:28:56;101797.84;;;14.90;86.57
69784;BME280;57054;51.978;4.498;2022-10-04T21:31:22;101794.38;;;14.90;86.44
69784;BME280;57054;51.978;4.498;2022-10-04T21:33:47;101795.22;;;14.90;86.21
69784;BME280;57054;51.978;4.498;2022-10-04T21:36:13;101791.72;;;14.90;86.48
69784;BME280;57054;51.978;4.498;2022-10-04T21:38:38;101790.00;;;14.89;86.33
69784;BME280;57054;51.978;4.498;2022-10-04T21:41:04;101791.72;;;14.90;86.19
69784;BME280;57054;51.978;4.498;2022-10-04T21:43:29;101781.22;;;14.88;86.31
69784;BME280;57054;51.978;4.498;2022-10-04T21:45:55;101775.09;;;14.88;86.27
69784;BME280;57054;51.978;4.498;2022-10-04T21:48:21;101768.13;;;14.87;86.44
69784;BME280;57054;51.978;4.498;2022-10-04T21:50:48;101755.84;;;14.86;86.42
69784;BME280;57054;51.978;4.498;2022-10-04T21:53:14;101752.28;;;14.87;86.66
69784;BME280;57054;51.978;4.498;2022-10-04T21:55:40;101764.69;;;14.85;86.65
69784;BME280;57054;51.978;4.498;2022-10-04T21:58:05;101749.78;;;14.84;86.82
69784;BME280;57054;51.978;4.498;2022-10-04T22:00:30;101762.97;;;14.84;86.42
69784;BME280;57054;51.978;4.498;2022-10-04T22:02:56;101760.31;;;14.84;86.63
69784;BME280;57054;51.978;4.498;2022-10-04T22:05:22;101756.00;;;14.83;86.71
69784;BME280;57054;51.978;4.498;2022-10-04T22:07:47;101753.34;;;14.83;86.91
69784;BME280;57054;51.978;4.498;2022-10-04T22:10:13;101756.00;;;14.83;86.74
69784;BME280;57054;51.978;4.498;2022-10-04T22:12:38;101749.84;;;14.82;86.98
69784;BME280;57054;51.978;4.498;2022-10-04T22:15:05;101749.00;;;14.82;86.95
69784;BME280;57054;51.978;4.498;2022-10-04T22:17:30;101742.00;;;14.81;87.42
69784;BME280;57054;51.978;4.498;2022-10-04T22:19:56;101739.34;;;14.81;87.46
69784;BME280;57054;51.978;4.498;2022-10-04T22:22:21;101735.03;;;14.80;87.67
69784;BME280;57054;51.978;4.498;2022-10-04T22:24:46;101733.28;;;14.78;88.10
69784;BME280;57054;51.978;4.498;2022-10-04T22:27:14;101726.25;;;14.79;87.84
69784;BME280;57054;51.978;4.498;2022-10-04T22:29:40;101736.81;;;14.79;87.95
69784;BME280;57054;51.978;4.498;2022-10-04T22:32:20;101735.94;;;14.78;88.17
69784;BME280;57054;51.978;4.498;2022-10-04T22:34:46;101744.72;;;14.79;88.21
69784;BME280;57054;51.978;4.498;2022-10-04T22:37:12;101737.72;;;14.78;88.19
69784;BME280;57054;51.978;4.498;2022-10-04T22:39:38;101735.94;;;14.78;88.37
69784;BME280;57054;51.978;4.498;2022-10-04T22:42:03;101737.72;;;14.78;88.19
69784;BME280;57054;51.978;4.498;2022-10-04T22:44:33;101736.00;;;14.77;88.13
69784;BME280;57054;51.978;4.498;2022-10-04T22:47:00;101726.31;;;14.77;88.47
69784;BME280;57054;51.978;4.498;2022-10-04T22:49:29;101727.25;;;14.76;88.31
69784;BME280;57054;51.978;4.498;2022-10-04T22:51:56;101733.44;;;14.75;88.07
69784;BME280;57054;51.978;4.498;2022-10-04T22:54:29;101736.94;;;14.76;88.11
69784;BME280;57054;51.978;4.498;2022-10-04T22:56:56;101729.09;;;14.74;88.33
69784;BME280;57054;51.978;4.498;2022-10-04T22:59:29;101735.28;;;14.73;87.84
69784;BME280;57054;51.978;4.498;2022-10-04T23:01:58;101728.25;;;14.74;87.90
69784;BME280;57054;51.978;4.498;2022-10-04T23:04:24;101731.78;;;14.73;88.02
69784;BME280;57054;51.978;4.498;2022-10-04T23:06:51;101730.94;;;14.72;87.83
69784;BME280;57054;51.978;4.498;2022-10-04T23:09:17;101732.72;;;14.72;87.59
69784;BME280;57054;51.978;4.498;2022-10-04T23:11:43;101723.03;;;14.72;87.94